Time;durP1;ratioP1;P1;durP2;ratioP2;P2;SDS_P1;SDS_P2;PMS_P1;PMS_P2;Temp;Humidity;BMP_temperature;BMP_pressure;BME280_temperature;BME280_humidity;BME280_pressure;Samples;Min_cycle;Max_cycle;Signal;HPM_P1;HPM_P2
2021/08/20 00:00:34;;;;;;;45.53;7.63;;;;;;;;;;5022717;28;20136;-64
2021/08/20 00:03:01;;;;;;;29.45;6.22;;;;;;;;;;5025748;28;20073;-64
2021/08/20 00:05:27;;;;;;;36.05;7.75;;;;;;;;;;5024869;28;20075;-64
2021/08/20 00:07:54;;;;;;;30.60;7.57;;;;;;;;;;5023429;28;20073;-64
2021/08/20 00:10:21;;;;;;;28.35;7.60;;;;;;;;;;5025298;28;20145;-64
2021/08/20 00:12:47;;;;;;;34.25;7.22;;;;;;;;;;5019449;28;20385;-64
2021/08/20 00:15:14;;;;;;;30.58;7.25;;;;;;;;;;5028783;28;20057;-64
2021/08/20 00:17:42;;;;;;;30.02;6.95;;;;;;;;;;5027113;28;20450;-64
2021/08/20 00:20:09;;;;;;;33.60;6.82;;;;;;;;;;5020768;28;20474;-64
2021/08/20 00:22:36;;;;;;;43.88;6.75;;;;;;;;;;5026739;28;20060;-64
2021/08/20 00:25:03;;;;;;;24.52;6.95;;;;;;;;;;5026476;28;20132;-64
2021/08/20 00:27:30;;;;;;;47.63;7.93;;;;;;;;;;5020705;28;20141;-64
2021/08/20 00:29:56;;;;;;;35.35;7.82;;;;;;;;;;5023471;28;20451;-63
2021/08/20 00:32:23;;;;;;;34.40;7.68;;;;;;;;;;5028179;28;20049;-64
2021/08/20 00:34:49;;;;;;;37.55;6.80;;;;;;;;;;5022891;28;20081;-64
2021/08/20 00:37:16;;;;;;;32.40;7.17;;;;;;;;;;5025520;28;20136;-64
2021/08/20 00:39:43;;;;;;;29.35;6.72;;;;;;;;;;5023856;28;20137;-64
2021/08/20 00:42:10;;;;;;;25.60;7.35;;;;;;;;;;5024749;28;20133;-64
2021/08/20 00:44:36;;;;;;;23.60;7.32;;;;;;;;;;5024064;28;20081;-64
2021/08/20 00:47:03;;;;;;;30.23;7.03;;;;;;;;;;5025716;28;20125;-64
2021/08/20 00:49:30;;;;;;;34.67;7.55;;;;;;;;;;5023754;28;20049;-63
2021/08/20 00:51:56;;;;;;;30.93;8.13;;;;;;;;;;5026262;28;20041;-63
2021/08/20 00:54:23;;;;;;;37.22;7.55;;;;;;;;;;5023696;28;22041;-63
2021/08/20 00:56:49;;;;;;;26.80;6.90;;;;;;;;;;5025127;28;20081;-63
2021/08/20 00:59:16;;;;;;;52.88;9.70;;;;;;;;;;5023894;28;20100;-63
2021/08/20 01:01:43;;;;;;;39.47;8.43;;;;;;;;;;5021920;28;20136;-64
2021/08/20 01:04:10;;;;;;;14.80;4.80;;;;;;;;;;5025361;28;20308;-64
2021/08/20 01:06:37;;;;;;;23.30;6.07;;;;;;;;;;5026833;28;20133;-63
2021/08/20 01:09:05;;;;;;;17.00;3.75;;;;;;;;;;5022760;28;20456;-63
2021/08/20 01:11:31;;;;;;;19.23;3.90;;;;;;;;;;5024636;28;20140;-63
2021/08/20 01:13:58;;;;;;;13.73;4.22;;;;;;;;;;5022776;28;20050;-64
2021/08/20 01:16:25;;;;;;;25.37;5.93;;;;;;;;;;5020851;28;20053;-63
2021/08/20 01:18:51;;;;;;;28.92;5.28;;;;;;;;;;5016028;28;20131;-64
2021/08/20 01:21:20;;;;;;;28.43;5.80;;;;;;;;;;5023791;28;20088;-63
2021/08/20 01:23:52;;;;;;;24.75;5.72;;;;;;;;;;5026612;28;20136;-63
2021/08/20 01:26:19;;;;;;;23.83;5.60;;;;;;;;;;5023787;28;20137;-63
2021/08/20 01:28:45;;;;;;;14.83;5.40;;;;;;;;;;5023118;28;20168;-63
2021/08/20 01:31:13;;;;;;;16.45;5.32;;;;;;;;;;5024860;28;20161;-64
2021/08/20 01:33:40;;;;;;;22.20;6.38;;;;;;;;;;5023006;28;20103;-63
2021/08/20 01:36:08;;;;;;;19.45;6.22;;;;;;;;;;5023095;28;20085;-63
2021/08/20 01:38:45;;;;;;;26.35;6.43;;;;;;;;;;5024623;28;20072;-63
2021/08/20 01:41:12;;;;;;;21.08;5.72;;;;;;;;;;5024305;28;20140;-63
2021/08/20 01:43:39;;;;;;;29.50;5.80;;;;;;;;;;5024110;28;20501;-63
2021/08/20 01:46:05;;;;;;;19.77;6.30;;;;;;;;;;5016467;28;20041;-63
2021/08/20 01:48:32;;;;;;;22.60;6.13;;;;;;;;;;5024316;28;20132;-65
2021/08/20 01:50:58;;;;;;;35.25;6.63;;;;;;;;;;5021678;28;20085;-63
2021/08/20 01:53:24;;;;;;;23.83;6.70;;;;;;;;;;5027346;28;20560;-64
2021/08/20 01:55:51;;;;;;;22.02;6.50;;;;;;;;;;5021502;28;20144;-63
2021/08/20 01:58:18;;;;;;;24.27;5.73;;;;;;;;;;5021172;28;20077;-64
2021/08/20 02:00:44;;;;;;;16.85;5.65;;;;;;;;;;5018452;28;20088;-63
2021/08/20 02:03:11;;;;;;;17.77;5.63;;;;;;;;;;5021393;28;20054;-63
2021/08/20 02:05:38;;;;;;;21.20;5.60;;;;;;;;;;5026679;28;20049;-63
2021/08/20 02:08:05;;;;;;;15.32;5.70;;;;;;;;;;5023711;28;20088;-63
2021/08/20 02:10:32;;;;;;;21.83;5.00;;;;;;;;;;5023380;28;20080;-63
2021/08/20 02:12:59;;;;;;;20.75;4.60;;;;;;;;;;5022275;28;20159;-63
2021/08/20 02:15:25;;;;;;;17.73;5.38;;;;;;;;;;5022943;28;20125;-63
2021/08/20 02:17:53;;;;;;;17.20;4.90;;;;;;;;;;5022928;28;20053;-63
2021/08/20 02:20:19;;;;;;;22.80;5.32;;;;;;;;;;5021027;28;20132;-63
2021/08/20 02:22:46;;;;;;;23.75;5.95;;;;;;;;;;5028705;28;20041;-63
2021/08/20 02:25:13;;;;;;;23.85;6.68;;;;;;;;;;5023059;28;20099;-63
2021/08/20 02:27:39;;;;;;;15.40;5.75;;;;;;;;;;5021846;28;20132;-63
2021/08/20 02:30:06;;;;;;;25.40;6.47;;;;;;;;;;5025057;28;20141;-64
2021/08/20 02:32:32;;;;;;;17.98;6.75;;;;;;;;;;5025496;28;20077;-63
2021/08/20 02:35:08;;;;;;;16.95;5.40;;;;;;;;;;5019013;28;20041;-63
2021/08/20 02:37:34;;;;;;;9.77;3.72;;;;;;;;;;5028831;28;20129;-63
2021/08/20 02:40:01;;;;;;;12.82;3.72;;;;;;;;;;5022772;28;20076;-63
2021/08/20 02:42:27;;;;;;;12.25;4.55;;;;;;;;;;5027553;28;20129;-63
2021/08/20 02:44:54;;;;;;;15.27;4.68;;;;;;;;;;5030073;28;20084;-63
2021/08/20 02:47:20;;;;;;;17.42;4.85;;;;;;;;;;5025168;28;20144;-63
2021/08/20 02:49:47;;;;;;;19.73;6.28;;;;;;;;;;5023007;28;20077;-63
2021/08/20 02:52:13;;;;;;;17.85;5.82;;;;;;;;;;5028397;28;20089;-63
2021/08/20 02:54:40;;;;;;;17.97;5.20;;;;;;;;;;5024760;28;20085;-64
2021/08/20 02:57:06;;;;;;;13.48;4.40;;;;;;;;;;5026373;28;20089;-63
2021/08/20 02:59:33;;;;;;;10.43;4.38;;;;;;;;;;5027611;28;20047;-63
2021/08/20 03:01:59;;;;;;;10.68;4.35;;;;;;;;;;5027088;28;20124;-63
2021/08/20 03:04:26;;;;;;;41.15;6.35;;;;;;;;;;5030049;28;20100;-63
2021/08/20 03:06:53;;;;;;;42.65;6.15;;;;;;;;;;5026301;28;20501;-63
2021/08/20 03:09:20;;;;;;;14.77;5.15;;;;;;;;;;5024999;28;20053;-63
2021/08/20 03:11:47;;;;;;;16.50;4.95;;;;;;;;;;5029727;28;20069;-63
2021/08/20 03:14:15;;;;;;;26.17;5.78;;;;;;;;;;5024233;28;20077;-63
2021/08/20 03:16:42;;;;;;;;;;;;;;;;;;5022548;28;20136;-63
2021/08/20 03:19:09;;;;;;;91.70;8.35;;;;;;;;;;5027102;28;19956;-63
2021/08/20 03:21:35;;;;;;;27.95;6.13;;;;;;;;;;5025466;28;20073;-63
2021/08/20 03:24:02;;;;;;;39.58;7.00;;;;;;;;;;5026275;28;20095;-63
2021/08/20 03:26:28;;;;;;;86.30;8.05;;;;;;;;;;5028902;28;20127;-63
2021/08/20 03:28:56;;;;;;;87.55;9.52;;;;;;;;;;5025551;28;20124;-63
2021/08/20 03:31:22;;;;;;;21.35;5.80;;;;;;;;;;5024677;28;20154;-63
2021/08/20 03:33:48;;;;;;;43.55;7.60;;;;;;;;;;5027089;28;20102;-63
2021/08/20 03:36:15;;;;;;;50.05;7.30;;;;;;;;;;5024969;28;20136;-63
2021/08/20 03:38:41;;;;;;;24.80;5.72;;;;;;;;;;5025501;28;20056;-64
2021/08/20 03:41:08;;;;;;;30.80;6.78;;;;;;;;;;5022956;28;20132;-63
2021/08/20 03:43:35;;;;;;;67.63;7.30;;;;;;;;;;5024297;28;20133;-63
2021/08/20 03:46:03;;;;;;;33.53;6.13;;;;;;;;;;5022236;28;20081;-63
2021/08/20 03:48:30;;;;;;;31.88;6.88;;;;;;;;;;5024846;28;20042;-63
2021/08/20 03:50:56;;;;;;;19.50;4.78;;;;;;;;;;5020006;28;20077;-63
2021/08/20 03:53:23;;;;;;;21.58;5.57;;;;;;;;;;5028368;28;20145;-63
2021/08/20 03:55:49;;;;;;;15.93;5.53;;;;;;;;;;5024005;28;20716;-63
2021/08/20 03:58:16;;;;;;;26.63;6.40;;;;;;;;;;5023183;28;20084;-64
2021/08/20 04:00:51;;;;;;;24.23;6.60;;;;;;;;;;5025602;28;20073;-63
2021/08/20 04:03:22;;;;;;;28.63;6.03;;;;;;;;;;5027178;28;20053;-63
2021/08/20 04:05:49;;;;;;;66.05;6.30;;;;;;;;;;5023899;28;20073;-63
2021/08/20 04:08:16;;;;;;;26.98;5.85;;;;;;;;;;5025340;28;20087;-63
2021/08/20 04:10:43;;;;;;;45.40;6.43;;;;;;;;;;5029116;28;20081;-63
2021/08/20 04:13:10;;;;;;;59.95;7.78;;;;;;;;;;5026565;28;20124;-63
2021/08/20 04:15:36;;;;;;;90.53;8.82;;;;;;;;;;5026192;28;20152;-63
2021/08/20 04:18:03;;;;;;;81.45;7.88;;;;;;;;;;5020029;28;20131;-63
2021/08/20 04:20:32;;;;;;;72.72;8.93;;;;;;;;;;5024725;28;20053;-63
2021/08/20 04:23:00;;;;;;;51.05;7.38;;;;;;;;;;5025538;28;20569;-63
2021/08/20 04:25:26;;;;;;;;;;;;;;;;;;5019548;28;20562;-63
2021/08/20 04:27:53;;;;;;;57.25;7.95;;;;;;;;;;5021964;28;19972;-63
2021/08/20 04:30:21;;;;;;;51.50;6.97;;;;;;;;;;5021726;28;20148;-63
2021/08/20 04:32:47;;;;;;;38.30;6.13;;;;;;;;;;5023931;28;20085;-63
2021/08/20 04:35:14;;;;;;;49.53;6.50;;;;;;;;;;5020767;28;20176;-63
2021/08/20 04:37:41;;;;;;;59.78;7.93;;;;;;;;;;5020228;28;20133;-63
2021/08/20 04:40:08;;;;;;;26.27;6.87;;;;;;;;;;5018886;28;20081;-63
2021/08/20 04:42:35;;;;;;;47.83;8.50;;;;;;;;;;5018594;28;20107;-63
2021/08/20 04:45:02;;;;;;;22.58;8.13;;;;;;;;;;5019931;28;20089;-63
2021/08/20 04:47:28;;;;;;;46.72;7.78;;;;;;;;;;5018967;28;20413;-63
2021/08/20 04:49:55;;;;;;;134.15;10.57;;;;;;;;;;5025338;28;20070;-63
2021/08/20 04:52:22;;;;;;;111.80;11.55;;;;;;;;;;5020987;28;20088;-63
2021/08/20 04:54:48;;;;;;;115.20;9.13;;;;;;;;;;5019420;28;20466;-63
2021/08/20 04:57:15;;;;;;;121.47;9.40;;;;;;;;;;5018773;28;20137;-63
2021/08/20 04:59:41;;;;;;;101.47;8.85;;;;;;;;;;5025775;28;20084;-64
2021/08/20 05:02:08;;;;;;;122.73;11.00;;;;;;;;;;5024072;28;20136;-63
2021/08/20 05:04:35;;;;;;;71.13;10.37;;;;;;;;;;5022647;28;20042;-64
2021/08/20 05:07:02;;;;;;;58.33;9.38;;;;;;;;;;5021657;28;20132;-63
2021/08/20 05:09:29;;;;;;;57.05;8.90;;;;;;;;;;5025983;28;20482;-65
2021/08/20 05:11:55;;;;;;;96.00;12.02;;;;;;;;;;5019019;28;20048;-63
2021/08/20 05:14:22;;;;;;;93.50;11.10;;;;;;;;;;5018745;28;20470;-63
2021/08/20 05:16:49;;;;;;;152.85;14.02;;;;;;;;;;5026674;28;20076;-64
2021/08/20 05:19:15;;;;;;;105.80;12.48;;;;;;;;;;5022388;28;20692;-63
2021/08/20 05:21:44;;;;;;;122.68;10.63;;;;;;;;;;5021485;28;20133;-63
2021/08/20 05:24:12;;;;;;;90.25;8.77;;;;;;;;;;5020899;28;20144;-63
2021/08/20 05:26:38;;;;;;;100.20;10.18;;;;;;;;;;5025633;28;20124;-63
2021/08/20 05:29:05;;;;;;;77.75;8.18;;;;;;;;;;5016673;28;20140;-63
2021/08/20 05:31:31;;;;;;;83.45;10.00;;;;;;;;;;5017209;28;20140;-63
2021/08/20 05:33:58;;;;;;;50.88;7.47;;;;;;;;;;5019934;28;20042;-63
2021/08/20 05:36:24;;;;;;;45.25;8.07;;;;;;;;;;5017859;28;20584;-63
2021/08/20 05:38:50;;;;;;;47.90;8.15;;;;;;;;;;5021501;28;20144;-63
2021/08/20 05:41:17;;;;;;;37.13;9.23;;;;;;;;;;5017227;28;20082;-63
2021/08/20 05:43:43;;;;;;;18.58;6.55;;;;;;;;;;5023034;28;20160;-63
2021/08/20 05:46:10;;;;;;;20.35;6.63;;;;;;;;;;5015603;28;20141;-63
2021/08/20 05:48:37;;;;;;;11.48;6.88;;;;;;;;;;5022784;28;20088;-63
2021/08/20 05:51:03;;;;;;;12.15;6.90;;;;;;;;;;5005088;28;20057;-63
2021/08/20 05:53:30;;;;;;;15.57;6.53;;;;;;;;;;5022310;28;20114;-63
2021/08/20 05:55:57;;;;;;;14.35;6.88;;;;;;;;;;5019609;28;20145;-63
2021/08/20 05:58:23;;;;;;;14.20;7.20;;;;;;;;;;5021601;28;20160;-63
2021/08/20 06:00:50;;;;;;;12.55;6.82;;;;;;;;;;5023361;28;20141;-63
2021/08/20 06:03:21;;;;;;;14.57;6.95;;;;;;;;;;5019263;28;20462;-63
2021/08/20 06:05:47;;;;;;;14.20;7.30;;;;;;;;;;5023956;28;20048;-63
2021/08/20 06:08:14;;;;;;;12.55;6.70;;;;;;;;;;5021720;28;20133;-63
2021/08/20 06:10:44;;;;;;;14.93;7.73;;;;;;;;;;5023660;28;20128;-63
2021/08/20 06:13:11;;;;;;;13.45;6.93;;;;;;;;;;5020400;28;20370;-63
2021/08/20 06:15:37;;;;;;;18.02;8.35;;;;;;;;;;5016575;28;20289;-63
2021/08/20 06:18:04;;;;;;;13.65;6.90;;;;;;;;;;5022177;28;20059;-63
2021/08/20 06:20:30;;;;;;;17.67;7.10;;;;;;;;;;5022725;28;20051;-63
2021/08/20 06:22:57;;;;;;;16.35;7.68;;;;;;;;;;5022512;28;20054;-63
2021/08/20 06:25:24;;;;;;;13.15;7.07;;;;;;;;;;5020044;28;20120;-63
2021/08/20 06:27:50;;;;;;;17.83;7.47;;;;;;;;;;5020171;28;20077;-63
2021/08/20 06:30:17;;;;;;;18.02;6.97;;;;;;;;;;5019897;28;20144;-63
2021/08/20 06:32:43;;;;;;;14.93;6.60;;;;;;;;;;5019624;28;20141;-63
2021/08/20 06:35:10;;;;;;;17.88;6.85;;;;;;;;;;5021322;28;20076;-63
2021/08/20 06:37:36;;;;;;;14.07;6.50;;;;;;;;;;5021637;28;20085;-63
2021/08/20 06:40:03;;;;;;;15.48;6.72;;;;;;;;;;5022274;28;20509;-63
2021/08/20 06:42:29;;;;;;;17.00;6.55;;;;;;;;;;5022217;28;20588;-63
2021/08/20 06:44:56;;;;;;;15.88;5.80;;;;;;;;;;5020249;28;20133;-63
2021/08/20 06:47:23;;;;;;;14.53;5.97;;;;;;;;;;5018525;28;20072;-63
2021/08/20 06:49:51;;;;;;;15.73;4.80;;;;;;;;;;5020704;28;20182;-63
2021/08/20 06:52:18;;;;;;;17.92;5.75;;;;;;;;;;5018139;28;20082;-63
2021/08/20 06:54:44;;;;;;;25.17;6.35;;;;;;;;;;5021997;28;20045;-63
2021/08/20 06:57:13;;;;;;;22.95;7.57;;;;;;;;;;5021053;28;20132;-63
2021/08/20 06:59:39;;;;;;;21.55;6.88;;;;;;;;;;5022733;28;20136;-63
2021/08/20 07:02:06;;;;;;;19.88;7.07;;;;;;;;;;5019179;28;20093;-63
2021/08/20 07:04:34;;;;;;;32.65;6.82;;;;;;;;;;5020852;28;20486;-63
2021/08/20 07:07:01;;;;;;;20.65;5.85;;;;;;;;;;5023837;28;20076;-63
2021/08/20 07:09:28;;;;;;;26.65;6.07;;;;;;;;;;5021384;28;21167;-63
2021/08/20 07:11:54;;;;;;;17.95;5.07;;;;;;;;;;5020427;28;20041;-63
2021/08/20 07:14:20;;;;;;;17.67;5.35;;;;;;;;;;5017104;28;20086;-63
2021/08/20 07:16:47;;;;;;;18.25;5.05;;;;;;;;;;5018386;28;20565;-63
2021/08/20 07:19:13;;;;;;;15.68;4.55;;;;;;;;;;5016719;28;20076;-63
2021/08/20 07:21:40;;;;;;;13.50;4.28;;;;;;;;;;5019149;28;20480;-63
2021/08/20 07:24:06;;;;;;;12.73;3.33;;;;;;;;;;5020793;28;20486;-63
2021/08/20 07:26:33;;;;;;;12.98;3.55;;;;;;;;;;5022566;28;20143;-63
2021/08/20 07:29:02;;;;;;;12.50;2.85;;;;;;;;;;5022085;28;20042;-63
2021/08/20 07:31:28;;;;;;;15.38;3.20;;;;;;;;;;5023813;28;20132;-63
2021/08/20 07:33:55;;;;;;;14.00;3.37;;;;;;;;;;5020147;28;20076;-63
2021/08/20 07:36:22;;;;;;;9.10;2.42;;;;;;;;;;5026254;28;20140;-63
2021/08/20 07:38:48;;;;;;;10.38;2.70;;;;;;;;;;5026068;28;20141;-63
2021/08/20 07:41:15;;;;;;;12.52;2.45;;;;;;;;;;5022852;28;20473;-63
2021/08/20 07:43:41;;;;;;;6.57;2.00;;;;;;;;;;5028347;28;20141;-63
2021/08/20 07:46:08;;;;;;;8.07;2.00;;;;;;;;;;5023472;28;20160;-63
2021/08/20 07:48:34;;;;;;;4.50;1.77;;;;;;;;;;5020620;28;20049;-63
2021/08/20 07:51:01;;;;;;;3.55;1.70;;;;;;;;;;5020936;28;20052;-63
2021/08/20 07:53:28;;;;;;;4.35;1.80;;;;;;;;;;5023078;28;20069;-63
2021/08/20 07:55:54;;;;;;;8.02;2.05;;;;;;;;;;5026773;28;20095;-63
2021/08/20 07:58:23;;;;;;;6.30;1.90;;;;;;;;;;5024801;28;21890;-63
2021/08/20 08:00:49;;;;;;;4.90;1.73;;;;;;;;;;5024857;28;20073;-63
2021/08/20 08:03:16;;;;;;;6.63;1.87;;;;;;;;;;5020133;28;20053;-63
2021/08/20 08:05:43;;;;;;;6.22;1.65;;;;;;;;;;5015681;28;20145;-63
2021/08/20 08:08:10;;;;;;;6.38;1.80;;;;;;;;;;5023044;28;20505;-63
2021/08/20 08:10:36;;;;;;;8.00;1.80;;;;;;;;;;5023235;28;20084;-63
2021/08/20 08:13:03;;;;;;;3.57;1.20;;;;;;;;;;5022911;28;20148;-63
2021/08/20 08:15:29;;;;;;;3.42;1.30;;;;;;;;;;5024740;28;20045;-63
2021/08/20 08:17:55;;;;;;;2.47;1.20;;;;;;;;;;5020554;28;20080;-63
2021/08/20 08:20:22;;;;;;;4.07;1.40;;;;;;;;;;5020304;28;20080;-63
2021/08/20 08:22:49;;;;;;;3.13;1.30;;;;;;;;;;5022515;28;20184;-63
2021/08/20 08:25:20;;;;;;;5.75;1.38;;;;;;;;;;5022071;28;20081;-63
2021/08/20 08:27:56;;;;;;;6.18;1.30;;;;;;;;;;5026174;28;20075;-63
2021/08/20 08:30:27;;;;;;;2.42;1.23;;;;;;;;;;5025931;28;20409;-63
2021/08/20 08:32:54;;;;;;;4.55;1.40;;;;;;;;;;5020560;28;20053;-63
2021/08/20 08:35:22;;;;;;;4.50;1.45;;;;;;;;;;5023203;28;20050;-63
2021/08/20 08:37:48;;;;;;;3.77;1.17;;;;;;;;;;5024679;28;20141;-63
2021/08/20 08:40:15;;;;;;;2.10;1.27;;;;;;;;;;5022889;28;20096;-63
2021/08/20 08:42:42;;;;;;;4.93;1.42;;;;;;;;;;5024326;28;20073;-63
2021/08/20 08:45:08;;;;;;;3.85;1.25;;;;;;;;;;5021829;28;20088;-63
2021/08/20 08:47:36;;;;;;;6.63;1.52;;;;;;;;;;5025442;28;20137;-63
2021/08/20 08:50:04;;;;;;;5.60;1.20;;;;;;;;;;5021346;28;20479;-63
2021/08/20 08:52:31;;;;;;;6.95;1.30;;;;;;;;;;5025092;28;20088;-63
2021/08/20 08:55:05;;;;;;;2.58;1.10;;;;;;;;;;5019707;28;20080;-63
2021/08/20 08:57:31;;;;;;;3.15;0.85;;;;;;;;;;5021649;28;20103;-63
2021/08/20 08:59:58;;;;;;;6.57;1.52;;;;;;;;;;5022570;28;20049;-63
2021/08/20 09:02:25;;;;;;;4.87;1.50;;;;;;;;;;5020636;28;20049;-63
2021/08/20 09:04:56;;;;;;;2.85;1.25;;;;;;;;;;5020550;28;20038;-63
2021/08/20 09:07:24;;;;;;;9.25;1.95;;;;;;;;;;5019003;28;20058;-63
2021/08/20 09:10:10;;;;;;;3.17;1.50;;;;;;;;;;5020802;28;20128;-63
2021/08/20 09:12:36;;;;;;;2.67;1.27;;;;;;;;;;5022921;28;20454;-63
2021/08/20 09:15:04;;;;;;;2.47;1.30;;;;;;;;;;5021720;28;20081;-63
2021/08/20 09:17:35;;;;;;;3.75;1.50;;;;;;;;;;5024618;28;20137;-63
2021/08/20 09:20:17;;;;;;;1.90;1.00;;;;;;;;;;5025562;28;20105;-63
2021/08/20 09:22:45;;;;;;;2.88;1.20;;;;;;;;;;5022257;28;20124;-63
2021/08/20 09:25:27;;;;;;;2.40;1.08;;;;;;;;;;5022881;28;20053;-63
2021/08/20 09:28:09;;;;;;;1.42;0.98;;;;;;;;;;5025080;28;20140;-63
2021/08/20 09:30:36;;;;;;;1.70;0.90;;;;;;;;;;5025836;28;20049;-63
2021/08/20 09:33:08;;;;;;;3.88;0.75;;;;;;;;;;5025092;28;20044;-63
2021/08/20 09:35:36;;;;;;;1.05;0.73;;;;;;;;;;5026997;28;20059;-63
2021/08/20 09:38:06;;;;;;;1.67;0.90;;;;;;;;;;5025096;28;20140;-63
2021/08/20 09:40:37;;;;;;;5.60;0.93;;;;;;;;;;5019883;28;20053;-63
2021/08/20 09:43:25;;;;;;;4.70;1.55;;;;;;;;;;5027980;28;20125;-63
2021/08/20 09:46:07;;;;;;;3.00;1.02;;;;;;;;;;5021531;28;20085;-63
2021/08/20 09:48:38;;;;;;;2.58;0.82;;;;;;;;;;5020967;28;20490;-63
2021/08/20 09:51:04;;;;;;;2.55;0.88;;;;;;;;;;5021532;28;20058;-63
2021/08/20 09:53:31;;;;;;;2.60;0.80;;;;;;;;;;5022813;28;20084;-63
2021/08/20 09:56:02;;;;;;;1.65;0.90;;;;;;;;;;5019993;28;20045;-63
2021/08/20 09:58:32;;;;;;;2.65;0.85;;;;;;;;;;5024461;28;20081;-63
2021/08/20 10:01:03;;;;;;;1.35;0.85;;;;;;;;;;5021399;28;20064;-63
2021/08/20 10:03:32;;;;;;;2.67;1.08;;;;;;;;;;5021897;28;20107;-63
2021/08/20 10:06:00;;;;;;;3.15;1.00;;;;;;;;;;5019814;28;20132;-63
2021/08/20 10:08:26;;;;;;;;;;;;;;;;;;5021888;28;20077;-63
2021/08/20 10:10:54;;;;;;;2.45;0.90;;;;;;;;;;5019065;28;20001;-63
2021/08/20 10:13:21;;;;;;;1.63;0.88;;;;;;;;;;5016771;28;20081;-63
2021/08/20 10:15:47;;;;;;;0.80;0.60;;;;;;;;;;5021002;28;20136;-63
2021/08/20 10:18:15;;;;;;;3.23;1.03;;;;;;;;;;5017544;28;20049;-63
2021/08/20 10:20:43;;;;;;;2.67;0.80;;;;;;;;;;5018422;28;20645;-63
2021/08/20 10:23:15;;;;;;;3.10;0.70;;;;;;;;;;5024105;28;20087;-63
2021/08/20 10:25:42;;;;;;;2.40;0.98;;;;;;;;;;5020035;28;20049;-63
2021/08/20 10:28:11;;;;;;;3.90;0.85;;;;;;;;;;5021259;28;20145;-63
2021/08/20 10:30:37;;;;;;;2.33;0.77;;;;;;;;;;5023169;28;20505;-64
2021/08/20 10:33:05;;;;;;;1.88;0.68;;;;;;;;;;5021762;28;20053;-63
2021/08/20 10:35:50;;;;;;;3.10;0.70;;;;;;;;;;5023581;28;20140;-63
2021/08/20 10:38:24;;;;;;;1.80;0.60;;;;;;;;;;5021839;28;20148;-63
2021/08/20 10:41:09;;;;;;;2.80;1.17;;;;;;;;;;5019614;28;20088;-63
2021/08/20 10:43:49;;;;;;;3.13;0.80;;;;;;;;;;5017254;28;20545;-63
2021/08/20 10:46:42;;;;;;;1.45;0.75;;;;;;;;;;5016050;28;20140;-63
2021/08/20 10:51:47;;;;;;;2.33;0.77;;;;;;;;;;5020206;28;20073;-63
2021/08/20 10:54:18;;;;;;;5.38;1.10;;;;;;;;;;5017994;28;20136;-63
2021/08/20 10:56:51;;;;;;;2.33;0.68;;;;;;;;;;5016269;28;20461;-63
2021/08/20 10:59:39;;;;;;;2.03;0.77;;;;;;;;;;5023644;28;20103;-63
2021/08/20 11:02:18;;;;;;;4.53;0.80;;;;;;;;;;5020526;28;20080;-64
2021/08/20 11:05:02;;;;;;;2.28;1.02;;;;;;;;;;5022072;28;20497;-64
2021/08/20 11:07:37;;;;;;;2.25;1.10;;;;;;;;;;5027705;28;20170;-63
2021/08/20 11:10:10;;;;;;;2.53;0.80;;;;;;;;;;5026538;28;20057;-63
2021/08/20 11:12:49;;;;;;;3.80;0.60;;;;;;;;;;5023886;28;20120;-63
2021/08/20 11:15:21;;;;;;;4.07;0.90;;;;;;;;;;5020949;28;20154;-64
2021/08/20 11:17:51;;;;;;;1.58;0.70;;;;;;;;;;5024741;28;20557;-63
2021/08/20 11:20:23;;;;;;;3.50;1.00;;;;;;;;;;5021847;28;20054;-64
2021/08/20 11:23:07;;;;;;;1.38;0.65;;;;;;;;;;5024429;28;20132;-63
2021/08/20 11:25:46;;;;;;;2.08;0.70;;;;;;;;;;5028486;28;20141;-63
2021/08/20 11:28:19;;;;;;;1.25;0.70;;;;;;;;;;5024033;28;20136;-63
2021/08/20 11:31:06;;;;;;;1.35;0.75;;;;;;;;;;5024587;28;20127;-63
2021/08/20 11:33:33;;;;;;;3.05;1.20;;;;;;;;;;5024195;28;20053;-63
2021/08/20 11:36:05;;;;;;;3.47;0.60;;;;;;;;;;5023358;28;20115;-63
2021/08/20 11:38:33;;;;;;;2.50;0.73;;;;;;;;;;5025615;28;20128;-63
2021/08/20 11:41:23;;;;;;;1.23;0.88;;;;;;;;;;5023300;28;20045;-63
2021/08/20 11:43:53;;;;;;;2.35;0.82;;;;;;;;;;5020899;28;20209;-63
2021/08/20 11:46:22;;;;;;;2.80;0.70;;;;;;;;;;5019972;28;20054;-64
2021/08/20 11:48:49;;;;;;;1.05;0.57;;;;;;;;;;5022448;28;20128;-64
2021/08/20 11:51:23;;;;;;;2.25;0.80;;;;;;;;;;5025520;28;20144;-63
2021/08/20 11:53:50;;;;;;;1.52;0.77;;;;;;;;;;5024589;28;20129;-64
2021/08/20 11:56:17;;;;;;;2.10;0.70;;;;;;;;;;5024645;28;20129;-64
2021/08/20 11:58:45;;;;;;;0.98;0.73;;;;;;;;;;5022672;28;20049;-63
2021/08/20 12:01:25;;;;;;;1.35;0.68;;;;;;;;;;5021831;28;20120;-63
2021/08/20 12:03:54;;;;;;;3.72;0.68;;;;;;;;;;5019125;28;20061;-63
2021/08/20 12:06:22;;;;;;;4.30;1.20;;;;;;;;;;5025988;28;20046;-63
2021/08/20 12:08:48;;;;;;;2.75;0.80;;;;;;;;;;5023381;28;20128;-63
2021/08/20 12:11:21;;;;;;;2.83;0.60;;;;;;;;;;5024656;28;20100;-63
2021/08/20 12:13:49;;;;;;;1.40;0.85;;;;;;;;;;5022319;28;20095;-63
2021/08/20 12:16:36;;;;;;;2.15;0.90;;;;;;;;;;5022949;28;20132;-63
2021/08/20 12:19:13;;;;;;;1.85;0.90;;;;;;;;;;5016524;28;20045;-63
2021/08/20 12:21:44;;;;;;;2.92;0.90;;;;;;;;;;5023402;28;20099;-63
2021/08/20 12:24:11;;;;;;;1.65;0.90;;;;;;;;;;5021214;28;20053;-63
2021/08/20 12:26:37;;;;;;;0.77;0.52;;;;;;;;;;5037507;28;20128;-63
2021/08/20 12:29:16;;;;;;;4.13;0.90;;;;;;;;;;5019422;28;20092;-63
2021/08/20 12:31:53;;;;;;;1.98;0.93;;;;;;;;;;5023303;28;20462;-63
2021/08/20 12:34:25;;;;;;;3.35;0.73;;;;;;;;;;5023623;28;20486;-63
2021/08/20 12:36:55;;;;;;;1.13;0.50;;;;;;;;;;5022087;28;20093;-63
2021/08/20 12:39:32;;;;;;;1.65;0.60;;;;;;;;;;5024924;28;20137;-63
2021/08/20 12:42:16;;;;;;;2.05;0.60;;;;;;;;;;5026346;28;20044;-63
2021/08/20 12:44:43;;;;;;;1.23;0.73;;;;;;;;;;5026226;28;20077;-63
2021/08/20 12:47:10;;;;;;;;;;;;;;;;;;5026155;28;20573;-63
2021/08/20 12:49:55;;;;;;;1.50;0.60;;;;;;;;;;5023221;28;20003;-63
2021/08/20 12:52:25;;;;;;;2.75;0.70;;;;;;;;;;5025532;28;20458;-63
2021/08/20 12:54:52;;;;;;;3.22;0.77;;;;;;;;;;5025002;28;20076;-63
2021/08/20 12:57:19;;;;;;;3.63;0.70;;;;;;;;;;5026393;28;20038;-63
2021/08/20 12:59:45;;;;;;;1.67;0.63;;;;;;;;;;5026736;28;20053;-63
2021/08/20 13:02:13;;;;;;;1.03;0.73;;;;;;;;;;5025639;28;20580;-63
2021/08/20 13:04:39;;;;;;;2.85;0.75;;;;;;;;;;5020215;28;20532;-63
2021/08/20 13:07:07;;;;;;;1.25;0.73;;;;;;;;;;5023000;28;20073;-63
2021/08/20 13:09:34;;;;;;;1.02;0.82;;;;;;;;;;5025150;28;20217;-63
2021/08/20 13:12:02;;;;;;;2.10;0.82;;;;;;;;;;5027508;28;20080;-63
2021/08/20 13:14:32;;;;;;;2.33;0.65;;;;;;;;;;5024942;28;20583;-63
2021/08/20 13:17:03;;;;;;;0.40;0.40;;;;;;;;;;5024996;28;20434;-63
2021/08/20 13:19:29;;;;;;;0.47;0.43;;;;;;;;;;5017240;28;20092;-63
2021/08/20 13:21:56;;;;;;;1.50;0.82;;;;;;;;;;5022742;28;20099;-63
2021/08/20 13:24:22;;;;;;;5.53;1.15;;;;;;;;;;5026364;28;20077;-63
2021/08/20 13:26:48;;;;;;;2.23;0.67;;;;;;;;;;5026172;28;20120;-63
2021/08/20 13:29:15;;;;;;;1.60;0.60;;;;;;;;;;5025020;28;20304;-63
2021/08/20 13:31:41;;;;;;;0.93;0.70;;;;;;;;;;5026735;28;20124;-63
2021/08/20 13:34:09;;;;;;;1.15;0.60;;;;;;;;;;5024862;28;20053;-63
2021/08/20 13:36:35;;;;;;;2.58;0.70;;;;;;;;;;5022485;28;20456;-63
2021/08/20 13:39:02;;;;;;;1.77;0.98;;;;;;;;;;5020413;28;20132;-63
2021/08/20 13:41:32;;;;;;;3.30;0.63;;;;;;;;;;5024342;28;20121;-63
2021/08/20 13:43:59;;;;;;;0.93;0.57;;;;;;;;;;5024482;28;20311;-63
2021/08/20 13:46:26;;;;;;;0.87;0.60;;;;;;;;;;5023068;28;20057;-63
2021/08/20 13:48:53;;;;;;;1.20;0.65;;;;;;;;;;5017891;28;20810;-63
2021/08/20 13:51:19;;;;;;;1.27;0.70;;;;;;;;;;5023507;28;20525;-63
2021/08/20 13:53:45;;;;;;;1.42;0.80;;;;;;;;;;5022534;28;20107;-63
2021/08/20 13:56:12;;;;;;;2.72;0.70;;;;;;;;;;5019391;28;20124;-63
2021/08/20 13:58:40;;;;;;;1.92;0.93;;;;;;;;;;5020772;28;20132;-63
2021/08/20 14:01:07;;;;;;;0.75;0.70;;;;;;;;;;5017598;28;20129;-63
2021/08/20 14:03:34;;;;;;;2.33;0.70;;;;;;;;;;5008002;28;20046;-63
2021/08/20 14:06:01;;;;;;;2.85;0.60;;;;;;;;;;5020359;28;20045;-63
2021/08/20 14:08:29;;;;;;;1.80;0.60;;;;;;;;;;5017832;28;20128;-63
2021/08/20 14:10:56;;;;;;;1.92;0.80;;;;;;;;;;5020646;28;20049;-63
2021/08/20 14:13:22;;;;;;;2.75;0.80;;;;;;;;;;5023251;28;20133;-63
2021/08/20 14:15:49;;;;;;;0.90;0.53;;;;;;;;;;5020493;28;20077;-63
2021/08/20 14:18:15;;;;;;;2.85;0.77;;;;;;;;;;5020909;28;20057;-63
2021/08/20 14:20:42;;;;;;;1.40;0.70;;;;;;;;;;5023011;28;20454;-63
2021/08/20 14:23:09;;;;;;;2.30;1.05;;;;;;;;;;5021170;28;20489;-63
2021/08/20 14:25:36;;;;;;;1.02;0.47;;;;;;;;;;5023997;28;20525;-63
2021/08/20 14:28:02;;;;;;;3.38;0.93;;;;;;;;;;5023023;28;20128;-63
2021/08/20 14:30:29;;;;;;;1.07;0.70;;;;;;;;;;5022049;28;20134;-63
2021/08/20 14:32:57;;;;;;;1.70;0.50;;;;;;;;;;5026348;28;20543;-63
2021/08/20 14:35:24;;;;;;;0.50;0.50;;;;;;;;;;5023924;28;20088;-63
2021/08/20 14:37:50;;;;;;;0.95;0.55;;;;;;;;;;5023425;28;20084;-63
2021/08/20 14:40:17;;;;;;;1.85;0.63;;;;;;;;;;5020381;28;20092;-63
2021/08/20 14:42:44;;;;;;;1.27;0.77;;;;;;;;;;5021341;28;20124;-63
2021/08/20 14:45:10;;;;;;;1.40;0.68;;;;;;;;;;4981679;28;1237155;-63